sensor_id;sensor_type;location;lat;lon;timestamp;pressure;altitude;pressure_sealevel;temperature;humidity
31346;BME280;21711;49.708;18.568;2022-10-15T00:01:30;97299.28;;;11.67;100.00
31346;BME280;21711;49.708;18.568;2022-10-15T00:04:02;97286.03;;;11.67;100.00
31346;BME280;21711;49.708;18.568;2022-10-15T00:06:29;97291.44;;;11.57;100.00
31346;BME280;21711;49.708;18.568;2022-10-15T00:08:57;97300.28;;;11.42;100.00
31346;BME280;21711;49.708;18.568;2022-10-15T00:11:26;97297.66;;;11.37;100.00
31346;BME280;21711;49.708;18.568;2022-10-15T00:13:59;97293.81;;;11.24;100.00
31346;BME280;21711;49.708;18.568;2022-10-15T00:16:28;97298.91;;;11.15;100.00
31346;BME280;21711;49.708;18.568;2022-10-15T00:18:57;97292.09;;;11.38;100.00
31346;BME280;21711;49.708;18.568;2022-10-15T00:21:25;97296.59;;;11.43;100.00
31346;BME280;21711;49.708;18.568;2022-10-15T00:23:52;97290.53;;;11.37;100.00
31346;BME280;21711;49.708;18.568;2022-10-15T00:26:26;97294.00;;;11.32;100.00
31346;BME280;21711;49.708;18.568;2022-10-15T00:28:58;97286.72;;;11.14;100.00
31346;BME280;21711;49.708;18.568;2022-10-15T00:31:28;97286.97;;;11.17;100.00
31346;BME280;21711;49.708;18.568;2022-10-15T00:33:59;97288.69;;;10.98;100.00
31346;BME280;21711;49.708;18.568;2022-10-15T00:36:31;97286.31;;;10.96;100.00
31346;BME280;21711;49.708;18.568;2022-10-15T00:39:00;97290.06;;;10.85;100.00
31346;BME280;21711;49.708;18.568;2022-10-15T00:41:35;97283.28;;;10.68;100.00
31346;BME280;21711;49.708;18.568;2022-10-15T00:49:36;97268.25;;;11.03;100.00
31346;BME280;21711;49.708;18.568;2022-10-15T00:52:45;97268.06;;;10.95;100.00
31346;BME280;21711;49.708;18.568;2022-10-15T00:55:30;97264.22;;;10.71;100.00
31346;BME280;21711;49.708;18.568;2022-10-15T00:58:12;97258.97;;;10.61;100.00
31346;BME280;21711;49.708;18.568;2022-10-15T01:00:41;97264.53;;;10.64;100.00
31346;BME280;21711;49.708;18.568;2022-10-15T01:03:08;97257.25;;;10.86;100.00
31346;BME280;21711;49.708;18.568;2022-10-15T01:05:37;97263.03;;;10.93;100.00
31346;BME280;21711;49.708;18.568;2022-10-15T01:08:09;97256.59;;;11.10;100.00
31346;BME280;21711;49.708;18.568;2022-10-15T01:14:09;97248.66;;;11.04;100.00
31346;BME280;21711;49.708;18.568;2022-10-15T01:17:08;97246.31;;;11.03;100.00
31346;BME280;21711;49.708;18.568;2022-10-15T01:20:09;97246.06;;;10.99;100.00
31346;BME280;21711;49.708;18.568;2022-10-15T01:30:59;97231.16;;;11.43;100.00
31346;BME280;21711;49.708;18.568;2022-10-15T01:33:49;97226.31;;;11.21;100.00
31346;BME280;21711;49.708;18.568;2022-10-15T01:37:08;97225.09;;;11.08;100.00
31346;BME280;21711;49.708;18.568;2022-10-15T01:39:53;97218.28;;;11.31;100.00
31346;BME280;21711;49.708;18.568;2022-10-15T01:42:36;97220.19;;;11.26;100.00
31346;BME280;21711;49.708;18.568;2022-10-15T01:45:09;97218.44;;;11.16;100.00
31346;BME280;21711;49.708;18.568;2022-10-15T01:48:02;97212.19;;;11.01;100.00
31346;BME280;21711;49.708;18.568;2022-10-15T01:50:33;97207.78;;;10.86;100.00
31346;BME280;21711;49.708;18.568;2022-10-15T01:53:05;97198.13;;;10.66;100.00
31346;BME280;21711;49.708;18.568;2022-10-15T01:55:35;97198.19;;;10.56;100.00
31346;BME280;21711;49.708;18.568;2022-10-15T01:58:04;97191.88;;;10.51;100.00
31346;BME280;21711;49.708;18.568;2022-10-15T02:00:32;97198.78;;;10.37;100.00
31346;BME280;21711;49.708;18.568;2022-10-15T02:03:03;97198.63;;;10.18;100.00
31346;BME280;21711;49.708;18.568;2022-10-15T02:05:47;97205.25;;;10.15;100.00
31346;BME280;21711;49.708;18.568;2022-10-15T02:12:47;97205.63;;;10.54;100.00
31346;BME280;21711;49.708;18.568;2022-10-15T02:23:52;97190.19;;;11.65;100.00
31346;BME280;21711;49.708;18.568;2022-10-15T02:26:26;97193.53;;;11.71;100.00
31346;BME280;21711;49.708;18.568;2022-10-15T02:28:58;97187.41;;;11.76;100.00
31346;BME280;21711;49.708;18.568;2022-10-15T02:31:30;97182.94;;;11.76;100.00
31346;BME280;21711;49.708;18.568;2022-10-15T02:34:05;97185.94;;;11.89;100.00
31346;BME280;21711;49.708;18.568;2022-10-15T02:36:39;97193.63;;;11.90;100.00
31346;BME280;21711;49.708;18.568;2022-10-15T02:39:11;97185.38;;;11.92;100.00
31346;BME280;21711;49.708;18.568;2022-10-15T02:41:39;97182.56;;;11.83;100.00
31346;BME280;21711;49.708;18.568;2022-10-15T02:44:09;97186.63;;;11.75;100.00
31346;BME280;21711;49.708;18.568;2022-10-15T02:46:36;97176.19;;;11.60;100.00
31346;BME280;21711;49.708;18.568;2022-10-15T02:49:04;97177.94;;;11.45;100.00
31346;BME280;21711;49.708;18.568;2022-10-15T02:51:33;97177.97;;;11.40;100.00
31346;BME280;21711;49.708;18.568;2022-10-15T02:54:03;97167.28;;;11.21;100.00
31346;BME280;21711;49.708;18.568;2022-10-15T02:56:31;97166.19;;;10.97;100.00
31346;BME280;21711;49.708;18.568;2022-10-15T02:58:58;97163.09;;;10.85;100.00
31346;BME280;21711;49.708;18.568;2022-10-15T03:01:26;97164.50;;;10.72;100.00
31346;BME280;21711;49.708;18.568;2022-10-15T03:03:53;97144.22;;;10.62;100.00
31346;BME280;21711;49.708;18.568;2022-10-15T03:06:20;97145.34;;;10.50;100.00
31346;BME280;21711;49.708;18.568;2022-10-15T03:08:49;97133.44;;;10.53;100.00
31346;BME280;21711;49.708;18.568;2022-10-15T03:11:16;97137.22;;;10.36;100.00
31346;BME280;21711;49.708;18.568;2022-10-15T03:13:43;97135.38;;;10.32;100.00
31346;BME280;21711;49.708;18.568;2022-10-15T03:16:12;97135.91;;;10.34;100.00
31346;BME280;21711;49.708;18.568;2022-10-15T03:18:43;97132.06;;;10.61;100.00
31346;BME280;21711;49.708;18.568;2022-10-15T03:21:10;97132.06;;;10.61;100.00
31346;BME280;21711;49.708;18.568;2022-10-15T03:23:38;97136.13;;;10.43;100.00
31346;BME280;21711;49.708;18.568;2022-10-15T03:26:12;97132.63;;;10.58;100.00
31346;BME280;21711;49.708;18.568;2022-10-15T03:28:40;97132.09;;;10.56;100.00
31346;BME280;21711;49.708;18.568;2022-10-15T03:31:08;97126.09;;;10.79;100.00
31346;BME280;21711;49.708;18.568;2022-10-15T03:33:35;97115.75;;;10.83;100.00
31346;BME280;21711;49.708;18.568;2022-10-15T03:36:03;97125.44;;;10.63;100.00
31346;BME280;21711;49.708;18.568;2022-10-15T03:38:31;97127.38;;;10.42;100.00
31346;BME280;21711;49.708;18.568;2022-10-15T03:40:59;97133.28;;;10.34;100.00
31346;BME280;21711;49.708;18.568;2022-10-15T03:43:34;97131.66;;;10.38;100.00
31346;BME280;21711;49.708;18.568;2022-10-15T03:46:07;97130.31;;;10.40;100.00
31346;BME280;21711;49.708;18.568;2022-10-15T03:48:38;97135.78;;;10.60;100.00
31346;BME280;21711;49.708;18.568;2022-10-15T03:51:06;97136.97;;;11.08;100.00
31346;BME280;21711;49.708;18.568;2022-10-15T03:53:34;97130.88;;;11.37;100.00
31346;BME280;21711;49.708;18.568;2022-10-15T03:56:05;97129.72;;;11.48;100.00
31346;BME280;21711;49.708;18.568;2022-10-15T03:58:36;97113.88;;;11.67;100.00
31346;BME280;21711;49.708;18.568;2022-10-15T04:01:15;97115.56;;;11.58;100.00
31346;BME280;21711;49.708;18.568;2022-10-15T04:03:43;97118.88;;;11.44;100.00
31346;BME280;21711;49.708;18.568;2022-10-15T04:06:12;97101.47;;;11.63;100.00
31346;BME280;21711;49.708;18.568;2022-10-15T04:08:39;97091.63;;;11.88;100.00
31346;BME280;21711;49.708;18.568;2022-10-15T04:11:20;97092.47;;;12.27;100.00
31346;BME280;21711;49.708;18.568;2022-10-15T04:13:57;97087.75;;;12.23;100.00
31346;BME280;21711;49.708;18.568;2022-10-15T04:16:24;97087.75;;;12.43;100.00
31346;BME280;21711;49.708;18.568;2022-10-15T04:18:52;97088.41;;;12.68;100.00
31346;BME280;21711;49.708;18.568;2022-10-15T04:21:19;97080.25;;;12.64;100.00
31346;BME280;21711;49.708;18.568;2022-10-15T04:23:53;97083.31;;;12.71;100.00
31346;BME280;21711;49.708;18.568;2022-10-15T04:26:26;97081.84;;;12.79;100.00
31346;BME280;21711;49.708;18.568;2022-10-15T04:28:53;97076.13;;;12.72;100.00
31346;BME280;21711;49.708;18.568;2022-10-15T04:31:22;97078.16;;;12.94;100.00
31346;BME280;21711;49.708;18.568;2022-10-15T04:33:49;97082.69;;;13.08;100.00
31346;BME280;21711;49.708;18.568;2022-10-15T04:36:17;97082.19;;;13.06;100.00
31346;BME280;21711;49.708;18.568;2022-10-15T04:38:51;97079.06;;;13.18;100.00
31346;BME280;21711;49.708;18.568;2022-10-15T04:41:28;97085.44;;;13.17;100.00
31346;BME280;21711;49.708;18.568;2022-10-15T04:44:03;97095.09;;;13.26;100.00
31346;BME280;21711;49.708;18.568;2022-10-15T04:46:31;97090.28;;;13.28;100.00
31346;BME280;21711;49.708;18.568;2022-10-15T04:49:06;97094.91;;;13.37;100.00
31346;BME280;21711;49.708;18.568;2022-10-15T04:51:34;97096.97;;;13.40;100.00
31346;BME280;21711;49.708;18.568;2022-10-15T04:54:27;97095.00;;;13.46;100.00
31346;BME280;21711;49.708;18.568;2022-10-15T04:56:57;97101.50;;;13.39;100.00
31346;BME280;21711;49.708;18.568;2022-10-15T04:59:26;97101.22;;;13.41;100.00
31346;BME280;21711;49.708;18.568;2022-10-15T05:02:16;97090.38;;;13.37;100.00
31346;BME280;21711;49.708;18.568;2022-10-15T05:04:48;97097.06;;;13.35;100.00
31346;BME280;21711;49.708;18.568;2022-10-15T05:07:15;97102.19;;;13.45;100.00
31346;BME280;21711;49.708;18.568;2022-10-15T05:09:43;97100.22;;;13.37;100.00
31346;BME280;21711;49.708;18.568;2022-10-15T05:12:13;97094.53;;;13.44;100.00
31346;BME280;21711;49.708;18.568;2022-10-15T05:14:40;97104.88;;;13.59;100.00
31346;BME280;21711;49.708;18.568;2022-10-15T05:17:17;97089.72;;;13.60;100.00
31346;BME280;21711;49.708;18.568;2022-10-15T05:19:45;97086.69;;;13.66;100.00
31346;BME280;21711;49.708;18.568;2022-10-15T05:22:19;97085.59;;;13.67;100.00
31346;BME280;21711;49.708;18.568;2022-10-15T05:24:58;97089.34;;;13.66;100.00
31346;BME280;21711;49.708;18.568;2022-10-15T05:27:34;97083.59;;;13.73;100.00
31346;BME280;21711;49.708;18.568;2022-10-15T05:30:04;97091.38;;;13.84;100.00
31346;BME280;21711;49.708;18.568;2022-10-15T05:32:41;97086.84;;;13.84;100.00
31346;BME280;21711;49.708;18.568;2022-10-15T05:35:11;97076.72;;;13.86;100.00
31346;BME280;21711;49.708;18.568;2022-10-15T05:38:02;97072.97;;;13.87;100.00
31346;BME280;21711;49.708;18.568;2022-10-15T05:40:30;97061.41;;;13.92;100.00
31346;BME280;21711;49.708;18.568;2022-10-15T05:43:06;97065.06;;;13.96;100.00
31346;BME280;21711;49.708;18.568;2022-10-15T05:45:33;97070.56;;;14.00;100.00
31346;BME280;21711;49.708;18.568;2022-10-15T05:48:04;97078.13;;;14.06;100.00
31346;BME280;21711;49.708;18.568;2022-10-15T05:50:31;97082.25;;;14.13;100.00
31346;BME280;21711;49.708;18.568;2022-10-15T05:53:01;97080.94;;;14.24;100.00
31346;BME280;21711;49.708;18.568;2022-10-15T05:55:41;97082.59;;;14.34;100.00
31346;BME280;21711;49.708;18.568;2022-10-15T05:58:08;97078.81;;;14.35;100.00
31346;BME280;21711;49.708;18.568;2022-10-15T06:00:35;97080.03;;;14.29;100.00
31346;BME280;21711;49.708;18.568;2022-10-15T06:03:05;97092.41;;;14.33;100.00
31346;BME280;21711;49.708;18.568;2022-10-15T06:05:32;97090.91;;;14.41;100.00
31346;BME280;21711;49.708;18.568;2022-10-15T06:07:59;97079.63;;;14.36;100.00
31346;BME280;21711;49.708;18.568;2022-10-15T06:10:27;97099.19;;;14.40;100.00
31346;BME280;21711;49.708;18.568;2022-10-15T06:12:54;97105.56;;;14.53;100.00
31346;BME280;21711;49.708;18.568;2022-10-15T06:15:21;97095.53;;;14.50;100.00
31346;BME280;21711;49.708;18.568;2022-10-15T06:17:52;97099.56;;;14.47;100.00
31346;BME280;21711;49.708;18.568;2022-10-15T06:20:20;97106.28;;;14.44;100.00
31346;BME280;21711;49.708;18.568;2022-10-15T06:22:47;97096.53;;;14.63;100.00
31346;BME280;21711;49.708;18.568;2022-10-15T06:25:15;97102.94;;;14.76;100.00
31346;BME280;21711;49.708;18.568;2022-10-15T06:27:42;97109.41;;;14.83;100.00
31346;BME280;21711;49.708;18.568;2022-10-15T06:30:10;97113.13;;;14.82;100.00
31346;BME280;21711;49.708;18.568;2022-10-15T06:32:37;97113.47;;;14.81;100.00
31346;BME280;21711;49.708;18.568;2022-10-15T06:35:05;97111.97;;;14.75;100.00
31346;BME280;21711;49.708;18.568;2022-10-15T06:37:32;97108.31;;;14.84;100.00
31346;BME280;21711;49.708;18.568;2022-10-15T06:40:00;97115.03;;;14.82;100.00
31346;BME280;21711;49.708;18.568;2022-10-15T06:42:27;97111.25;;;14.83;100.00
31346;BME280;21711;49.708;18.568;2022-10-15T06:44:54;97119.63;;;14.90;100.00
31346;BME280;21711;49.708;18.568;2022-10-15T06:47:22;97110.03;;;14.89;100.00
31346;BME280;21711;49.708;18.568;2022-10-15T06:49:49;97115.88;;;14.91;100.00
31346;BME280;21711;49.708;18.568;2022-10-15T06:52:16;97109.91;;;14.94;100.00
31346;BME280;21711;49.708;18.568;2022-10-15T06:54:44;97120.63;;;15.03;100.00
31346;BME280;21711;49.708;18.568;2022-10-15T06:57:12;97114.59;;;14.89;100.00
31346;BME280;21711;49.708;18.568;2022-10-15T06:59:40;97126.94;;;14.84;100.00
31346;BME280;21711;49.708;18.568;2022-10-15T07:02:11;97108.78;;;14.86;100.00
31346;BME280;21711;49.708;18.568;2022-10-15T07:04:40;97123.19;;;14.85;100.00
31346;BME280;21711;49.708;18.568;2022-10-15T07:07:07;97110.53;;;14.91;100.00
31346;BME280;21711;49.708;18.568;2022-10-15T07:09:35;97118.66;;;14.86;100.00
31346;BME280;21711;49.708;18.568;2022-10-15T07:12:03;97111.44;;;14.86;100.00
31346;BME280;21711;49.708;18.568;2022-10-15T07:14:31;97111.84;;;14.80;100.00
31346;BME280;21711;49.708;18.568;2022-10-15T07:16:58;97109.69;;;14.82;100.00
31346;BME280;21711;49.708;18.568;2022-10-15T07:19:27;97113.94;;;14.83;100.00
31346;BME280;21711;49.708;18.568;2022-10-15T07:21:55;97123.91;;;14.77;100.00
31346;BME280;21711;49.708;18.568;2022-10-15T07:24:23;97124.09;;;14.81;100.00
31346;BME280;21711;49.708;18.568;2022-10-15T07:26:50;97121.19;;;14.91;100.00
31346;BME280;21711;49.708;18.568;2022-10-15T07:29:17;97121.41;;;15.04;100.00
31346;BME280;21711;49.708;18.568;2022-10-15T07:31:45;97134.38;;;14.96;100.00
31346;BME280;21711;49.708;18.568;2022-10-15T07:34:15;97137.38;;;15.04;100.00
31346;BME280;21711;49.708;18.568;2022-10-15T07:36:43;97155.16;;;15.17;100.00
31346;BME280;21711;49.708;18.568;2022-10-15T07:39:10;97153.03;;;15.05;100.00
31346;BME280;21711;49.708;18.568;2022-10-15T07:41:37;97152.78;;;15.16;100.00
31346;BME280;21711;49.708;18.568;2022-10-15T07:44:05;97150.06;;;15.30;100.00
31346;BME280;21711;49.708;18.568;2022-10-15T07:46:32;97161.03;;;15.37;100.00
31346;BME280;21711;49.708;18.568;2022-10-15T07:49:00;97165.78;;;15.49;100.00
31346;BME280;21711;49.708;18.568;2022-10-15T07:51:27;97158.59;;;15.49;100.00
31346;BME280;21711;49.708;18.568;2022-10-15T07:53:55;97165.84;;;15.58;100.00
31346;BME280;21711;49.708;18.568;2022-10-15T07:56:22;97174.13;;;15.47;100.00
31346;BME280;21711;49.708;18.568;2022-10-15T07:58:50;97171.47;;;15.47;100.00
31346;BME280;21711;49.708;18.568;2022-10-15T08:01:20;97175.84;;;15.52;100.00
31346;BME280;21711;49.708;18.568;2022-10-15T08:03:48;97172.72;;;15.50;100.00
31346;BME280;21711;49.708;18.568;2022-10-15T08:06:15;97174.81;;;15.62;100.00
31346;BME280;21711;49.708;18.568;2022-10-15T08:08:43;97182.25;;;15.91;100.00
31346;BME280;21711;49.708;18.568;2022-10-15T08:11:14;97182.03;;;16.11;100.00
31346;BME280;21711;49.708;18.568;2022-10-15T08:13:42;97181.84;;;15.98;100.00
31346;BME280;21711;49.708;18.568;2022-10-15T08:16:12;97179.03;;;16.03;100.00
31346;BME280;21711;49.708;18.568;2022-10-15T08:18:41;97177.03;;;16.36;100.00
31346;BME280;21711;49.708;18.568;2022-10-15T08:21:10;97182.09;;;16.55;100.00
31346;BME280;21711;49.708;18.568;2022-10-15T08:23:37;97186.47;;;16.86;100.00
31346;BME280;21711;49.708;18.568;2022-10-15T08:26:05;97186.16;;;17.14;100.00
31346;BME280;21711;49.708;18.568;2022-10-15T08:28:34;97183.78;;;17.21;100.00
31346;BME280;21711;49.708;18.568;2022-10-15T08:31:02;97186.28;;;17.18;100.00
31346;BME280;21711;49.708;18.568;2022-10-15T08:33:34;97181.28;;;16.81;100.00
31346;BME280;21711;49.708;18.568;2022-10-15T08:36:04;97182.25;;;16.59;100.00
31346;BME280;21711;49.708;18.568;2022-10-15T08:38:33;97175.34;;;16.58;100.00
31346;BME280;21711;49.708;18.568;2022-10-15T08:41:03;97173.75;;;16.48;100.00
31346;BME280;21711;49.708;18.568;2022-10-15T08:43:42;97183.34;;;16.40;100.00
31346;BME280;21711;49.708;18.568;2022-10-15T08:46:24;97183.59;;;16.12;100.00
31346;BME280;21711;49.708;18.568;2022-10-15T08:48:58;97185.00;;;16.00;100.00
31346;BME280;21711;49.708;18.568;2022-10-15T08:51:48;97199.75;;;15.98;100.00
31346;BME280;21711;49.708;18.568;2022-10-15T08:54:19;97180.31;;;15.74;100.00
31346;BME280;21711;49.708;18.568;2022-10-15T08:56:52;97193.84;;;15.78;100.00
31346;BME280;21711;49.708;18.568;2022-10-15T08:59:44;97195.41;;;15.79;100.00
31346;BME280;21711;49.708;18.568;2022-10-15T09:02:24;97197.84;;;15.67;100.00
31346;BME280;21711;49.708;18.568;2022-10-15T09:05:47;97194.59;;;15.70;100.00
31346;BME280;21711;49.708;18.568;2022-10-15T09:13:45;97190.25;;;15.42;100.00
31346;BME280;21711;49.708;18.568;2022-10-15T09:16:27;97188.19;;;15.39;100.00
31346;BME280;21711;49.708;18.568;2022-10-15T09:18:55;97191.09;;;15.29;100.00
31346;BME280;21711;49.708;18.568;2022-10-15T09:21:24;97194.38;;;15.25;100.00
31346;BME280;21711;49.708;18.568;2022-10-15T09:24:00;97197.88;;;15.35;100.00
31346;BME280;21711;49.708;18.568;2022-10-15T09:30:20;97201.97;;;15.41;100.00
31346;BME280;21711;49.708;18.568;2022-10-15T09:33:03;97198.88;;;15.48;100.00
31346;BME280;21711;49.708;18.568;2022-10-15T09:38:41;97196.88;;;15.54;100.00
31346;BME280;21711;49.708;18.568;2022-10-15T09:41:28;97208.00;;;15.56;100.00
31346;BME280;21711;49.708;18.568;2022-10-15T09:44:00;97217.44;;;15.62;100.00
31346;BME280;21711;49.708;18.568;2022-10-15T09:46:46;97219.31;;;15.61;100.00
31346;BME280;21711;49.708;18.568;2022-10-15T09:49:23;97222.38;;;15.46;100.00
31346;BME280;21711;49.708;18.568;2022-10-15T09:52:03;97224.09;;;15.42;100.00
31346;BME280;21711;49.708;18.568;2022-10-15T09:54:44;97229.44;;;15.50;100.00
31346;BME280;21711;49.708;18.568;2022-10-15T09:57:16;97207.31;;;15.41;100.00
31346;BME280;21711;49.708;18.568;2022-10-15T09:59:55;97210.06;;;15.59;100.00
31346;BME280;21711;49.708;18.568;2022-10-15T10:02:24;97218.50;;;15.52;100.00
31346;BME280;21711;49.708;18.568;2022-10-15T10:04:52;97216.75;;;15.47;100.00
31346;BME280;21711;49.708;18.568;2022-10-15T10:07:36;97218.75;;;15.42;100.00
31346;BME280;21711;49.708;18.568;2022-10-15T10:10:26;97211.28;;;15.52;100.00
31346;BME280;21711;49.708;18.568;2022-10-15T10:12:55;97212.88;;;15.62;100.00
31346;BME280;21711;49.708;18.568;2022-10-15T10:15:41;97215.75;;;15.66;100.00
31346;BME280;21711;49.708;18.568;2022-10-15T10:18:29;97205.97;;;15.52;100.00
31346;BME280;21711;49.708;18.568;2022-10-15T10:21:01;97214.13;;;15.56;100.00
31346;BME280;21711;49.708;18.568;2022-10-15T10:23:33;97210.03;;;15.50;100.00
31346;BME280;21711;49.708;18.568;2022-10-15T10:26:09;97203.63;;;15.60;100.00
31346;BME280;21711;49.708;18.568;2022-10-15T10:28:49;97203.47;;;15.56;100.00
31346;BME280;21711;49.708;18.568;2022-10-15T10:31:33;97212.25;;;15.57;100.00
31346;BME280;21711;49.708;18.568;2022-10-15T10:34:17;97202.22;;;15.62;100.00
31346;BME280;21711;49.708;18.568;2022-10-15T10:36:51;97203.63;;;15.60;100.00
31346;BME280;21711;49.708;18.568;2022-10-15T10:39:31;97208.50;;;15.58;100.00
31346;BME280;21711;49.708;18.568;2022-10-15T10:42:05;97210.06;;;15.59;100.00
31346;BME280;21711;49.708;18.568;2022-10-15T10:44:41;97207.03;;;15.51;100.00
31346;BME280;21711;49.708;18.568;2022-10-15T10:47:24;97201.69;;;15.51;100.00
31346;BME280;21711;49.708;18.568;2022-10-15T10:49:57;97210.34;;;15.57;100.00
31346;BME280;21711;49.708;18.568;2022-10-15T10:52:32;97225.16;;;15.63;100.00
31346;BME280;21711;49.708;18.568;2022-10-15T10:55:16;97212.28;;;15.65;100.00
31346;BME280;21711;49.708;18.568;2022-10-15T10:57:49;97208.34;;;15.63;100.00
31346;BME280;21711;49.708;18.568;2022-10-15T11:00:39;97200.19;;;15.59;100.00
31346;BME280;21711;49.708;18.568;2022-10-15T11:17:49;97192.91;;;16.41;100.00
31346;BME280;21711;49.708;18.568;2022-10-15T11:20:50;97190.56;;;16.57;100.00
31346;BME280;21711;49.708;18.568;2022-10-15T11:35:30;97199.22;;;16.80;98.01
31346;BME280;21711;49.708;18.568;2022-10-15T11:44:02;97206.03;;;17.52;92.08
31346;BME280;21711;49.708;18.568;2022-10-15T12:01:32;97186.50;;;18.30;72.11
31346;BME280;21711;49.708;18.568;2022-10-15T12:07:30;97178.72;;;17.77;77.83
31346;BME280;21711;49.708;18.568;2022-10-15T12:19:21;97198.16;;;17.95;76.43
31346;BME280;21711;49.708;18.568;2022-10-15T12:30:11;97193.00;;;17.81;75.05
31346;BME280;21711;49.708;18.568;2022-10-15T12:32:45;97185.84;;;17.64;73.86
31346;BME280;21711;49.708;18.568;2022-10-15T12:37:45;97178.81;;;17.59;75.18
31346;BME280;21711;49.708;18.568;2022-10-15T12:43:01;97171.59;;;17.90;74.73
31346;BME280;21711;49.708;18.568;2022-10-15T12:45:37;97187.16;;;17.87;73.92
31346;BME280;21711;49.708;18.568;2022-10-15T12:50:45;97174.22;;;17.68;74.95
31346;BME280;21711;49.708;18.568;2022-10-15T12:56:37;97176.00;;;17.85;72.67
31346;BME280;21711;49.708;18.568;2022-10-15T12:59:52;97185.81;;;18.11;74.59
31346;BME280;21711;49.708;18.568;2022-10-15T13:02:44;97187.16;;;18.18;72.64
31346;BME280;21711;49.708;18.568;2022-10-15T13:05:32;97192.13;;;17.98;71.06
31346;BME280;21711;49.708;18.568;2022-10-15T13:08:10;97189.16;;;17.99;71.30
31346;BME280;21711;49.708;18.568;2022-10-15T13:10:49;97189.28;;;18.03;72.66
31346;BME280;21711;49.708;18.568;2022-10-15T13:13:31;97186.03;;;17.88;72.62
31346;BME280;21711;49.708;18.568;2022-10-15T13:16:07;97187.91;;;17.97;73.05
31346;BME280;21711;49.708;18.568;2022-10-15T13:18:35;97185.69;;;17.99;74.97
31346;BME280;21711;49.708;18.568;2022-10-15T13:21:03;97182.91;;;17.86;75.75
31346;BME280;21711;49.708;18.568;2022-10-15T13:23:35;97178.41;;;17.78;73.12
31346;BME280;21711;49.708;18.568;2022-10-15T13:28:40;97182.28;;;17.90;76.25
31346;BME280;21711;49.708;18.568;2022-10-15T13:31:20;97178.50;;;17.91;76.16
31346;BME280;21711;49.708;18.568;2022-10-15T13:34:04;97177.44;;;17.83;73.71
31346;BME280;21711;49.708;18.568;2022-10-15T13:36:35;97177.66;;;17.69;74.05
31346;BME280;21711;49.708;18.568;2022-10-15T13:39:06;97168.56;;;17.61;75.00
31346;BME280;21711;49.708;18.568;2022-10-15T13:41:37;97176.44;;;17.57;75.24
31346;BME280;21711;49.708;18.568;2022-10-15T13:44:23;97181.66;;;17.54;75.35
31346;BME280;21711;49.708;18.568;2022-10-15T13:46:50;97190.75;;;17.53;82.29
31346;BME280;21711;49.708;18.568;2022-10-15T13:49:18;97200.06;;;17.46;78.19
31346;BME280;21711;49.708;18.568;2022-10-15T13:51:51;97200.72;;;17.34;79.25
31346;BME280;21711;49.708;18.568;2022-10-15T13:54:29;97199.78;;;17.30;76.53
31346;BME280;21711;49.708;18.568;2022-10-15T13:57:00;97197.63;;;17.15;75.60
31346;BME280;21711;49.708;18.568;2022-10-15T13:59:29;97205.66;;;17.15;76.09
31346;BME280;21711;49.708;18.568;2022-10-15T14:02:00;97202.97;;;17.06;79.46
31346;BME280;21711;49.708;18.568;2022-10-15T14:04:31;97197.63;;;16.97;76.38
31346;BME280;21711;49.708;18.568;2022-10-15T14:07:20;97217.75;;;17.12;77.36
31346;BME280;21711;49.708;18.568;2022-10-15T14:09:49;97207.19;;;16.98;74.53
31346;BME280;21711;49.708;18.568;2022-10-15T14:12:16;97207.84;;;17.13;76.08
31346;BME280;21711;49.708;18.568;2022-10-15T14:14:45;97204.03;;;17.31;75.45
31346;BME280;21711;49.708;18.568;2022-10-15T14:17:24;97198.69;;;17.31;76.55
31346;BME280;21711;49.708;18.568;2022-10-15T14:20:05;97203.75;;;17.15;79.17
31346;BME280;21711;49.708;18.568;2022-10-15T14:22:52;97198.75;;;17.14;80.14
31346;BME280;21711;49.708;18.568;2022-10-15T14:25:23;97201.09;;;16.98;78.79
31346;BME280;21711;49.708;18.568;2022-10-15T14:27:51;97202.50;;;16.86;79.42
31346;BME280;21711;49.708;18.568;2022-10-15T14:30:31;97194.03;;;16.66;79.73
31346;BME280;21711;49.708;18.568;2022-10-15T14:33:00;97211.91;;;16.48;79.25
31346;BME280;21711;49.708;18.568;2022-10-15T14:35:34;97201.41;;;16.43;77.55
31346;BME280;21711;49.708;18.568;2022-10-15T14:40:34;97197.44;;;16.32;77.54
31346;BME280;21711;49.708;18.568;2022-10-15T14:43:06;97205.44;;;16.32;78.55
31346;BME280;21711;49.708;18.568;2022-10-15T14:45:53;97200.91;;;16.41;77.50
31346;BME280;21711;49.708;18.568;2022-10-15T14:48:40;97201.69;;;16.33;79.70
31346;BME280;21711;49.708;18.568;2022-10-15T14:51:21;97200.44;;;16.30;79.45
31346;BME280;21711;49.708;18.568;2022-10-15T14:53:50;97206.50;;;16.13;77.99
31346;BME280;21711;49.708;18.568;2022-10-15T14:56:24;97196.94;;;16.12;77.04
31346;BME280;21711;49.708;18.568;2022-10-15T14:58:57;97199.75;;;16.07;78.24
31346;BME280;21711;49.708;18.568;2022-10-15T15:01:24;97203.22;;;16.07;81.11
31346;BME280;21711;49.708;18.568;2022-10-15T15:03:55;97205.09;;;16.07;78.11
31346;BME280;21711;49.708;18.568;2022-10-15T15:06:23;97202.72;;;15.96;81.20
31346;BME280;21711;49.708;18.568;2022-10-15T15:08:50;97212.03;;;15.85;81.08
31346;BME280;21711;49.708;18.568;2022-10-15T15:11:21;97212.31;;;15.74;82.75
31346;BME280;21711;49.708;18.568;2022-10-15T15:13:50;97212.72;;;15.59;82.54
31346;BME280;21711;49.708;18.568;2022-10-15T15:16:18;97215.38;;;15.59;80.24
31346;BME280;21711;49.708;18.568;2022-10-15T15:18:46;97215.69;;;15.57;79.56
31346;BME280;21711;49.708;18.568;2022-10-15T15:21:19;97216.66;;;15.61;80.94